Time;durP1;ratioP1;P1;durP2;ratioP2;P2;SDS_P1;SDS_P2;PMS_P1;PMS_P2;Temp;Humidity;BMP_temperature;BMP_pressure;BME280_temperature;BME280_humidity;BME280_pressure;Samples;Min_cycle;Max_cycle;Signal;HPM_P1;HPM_P2
2023/07/16 00:01:57;;;;;;;3.33;1.87;;;19.70;99.90;;;20.23;100.00;97805.44;4960195;28;21030;-83
2023/07/16 00:04:26;;;;;;;5.33;2.07;;;19.60;99.90;;;20.27;100.00;97805.72;4958922;28;20567;-84
2023/07/16 00:06:58;;;;;;;2.00;1.70;;;19.60;99.90;;;20.31;100.00;97799.66;4959282;28;20542;-83
2023/07/16 00:09:28;;;;;;;2.93;1.90;;;19.60;99.90;;;20.24;100.00;97812.31;4962231;28;20477;-83
2023/07/16 00:11:58;;;;;;;5.60;2.50;;;19.60;99.90;;;20.27;100.00;97806.53;4960149;28;21067;-83
2023/07/16 00:14:29;;;;;;;3.27;2.27;;;19.60;99.90;;;20.22;100.00;97809.13;4962690;28;20636;-84
2023/07/16 00:16:59;;;;;;;4.07;2.10;;;19.60;99.90;;;20.24;100.00;97817.63;4958181;28;20478;-83
2023/07/16 00:19:29;;;;;;;4.00;2.63;;;19.60;99.90;;;20.24;100.00;97814.97;4962971;28;20495;-83
2023/07/16 00:22:02;;;;;;;3.90;2.60;;;19.60;99.90;;;20.24;100.00;97819.50;4962916;28;20465;-83
2023/07/16 00:24:32;;;;;;;2.93;2.37;;;19.60;99.90;;;20.22;100.00;97808.34;4964807;28;20472;-83
2023/07/16 00:27:03;;;;;;;4.37;2.87;;;19.60;99.90;;;20.22;100.00;97797.72;4962121;28;20854;-84
2023/07/16 00:29:34;;;;;;;2.80;2.50;;;19.60;99.90;;;20.24;100.00;97795.59;4962705;28;20964;-84
2023/07/16 00:32:03;;;;;;;4.13;2.23;;;19.50;99.90;;;20.16;100.00;97796.88;4960019;28;21156;-84
2023/07/16 00:34:34;;;;;;;5.93;2.53;;;19.60;99.90;;;20.19;100.00;97799.03;4962934;28;20472;-83
2023/07/16 00:37:05;;;;;;;3.70;2.73;;;19.50;99.90;;;20.15;100.00;97800.59;4962455;28;20552;-84
2023/07/16 00:39:37;;;;;;;4.63;2.80;;;19.60;99.90;;;20.16;100.00;97798.72;4963478;28;20465;-83
2023/07/16 00:42:08;;;;;;;7.13;2.70;;;19.50;99.90;;;20.21;100.00;97801.41;4960002;28;20527;-83
2023/07/16 00:44:38;;;;;;;6.97;2.60;;;19.50;99.90;;;20.24;100.00;97801.69;4960896;28;20469;-83
2023/07/16 00:47:09;;;;;;;3.60;2.60;;;19.50;99.90;;;20.20;100.00;97797.94;4961606;28;20465;-83
2023/07/16 00:49:40;;;;;;;2.77;2.40;;;19.40;99.90;;;20.14;100.00;97798.97;4962838;28;20461;-83
2023/07/16 00:52:20;;;;;;;2.83;1.90;;;19.50;99.90;;;20.10;100.00;97809.31;4960145;28;20508;-83
2023/07/16 00:54:51;;;;;;;3.20;2.00;;;19.50;99.90;;;20.10;100.00;97813.81;4959326;28;20494;-83
2023/07/16 00:57:21;;;;;;;4.73;2.00;;;19.40;99.90;;;20.06;100.00;97823.34;4962029;28;20461;-84
2023/07/16 00:59:51;;;;;;;5.07;2.37;;;19.40;99.90;;;20.05;100.00;97824.41;4961290;28;20474;-83
2023/07/16 01:02:20;;;;;;;2.70;1.83;;;19.40;99.90;;;19.99;100.00;97830.72;4959955;28;21530;-83
2023/07/16 01:04:50;;;;;;;4.53;2.07;;;19.40;99.90;;;19.94;100.00;97831.47;4963722;28;20476;-83
2023/07/16 01:07:26;;;;;;;3.63;1.60;;;19.30;99.90;;;19.97;100.00;97838.13;4961005;28;20552;-83
2023/07/16 01:09:57;;;;;;;4.37;1.67;;;19.30;99.90;;;19.98;100.00;97845.03;4963111;28;20524;-83
2023/07/16 01:12:29;;;;;;;8.13;2.03;;;19.30;99.90;;;19.83;100.00;97835.09;4959369;28;20624;-83
2023/07/16 01:15:00;;;;;;;8.17;1.90;;;19.30;99.90;;;19.79;100.00;97844.59;4960157;28;21003;-83
2023/07/16 01:17:31;;;;;;;4.83;2.07;;;19.30;99.90;;;19.75;100.00;97842.72;4959346;28;20465;-83
2023/07/16 01:20:03;;;;;;;5.90;1.73;;;19.20;99.90;;;19.75;100.00;97851.44;4959785;28;20473;-84
2023/07/16 01:23:17;;;;;;;5.50;1.60;;;19.20;99.90;;;19.74;100.00;97857.03;4961261;28;20867;-84
2023/07/16 01:26:27;;;;;;;12.13;1.90;;;19.20;99.90;;;19.73;100.00;97864.19;4954411;28;20469;-83
2023/07/16 01:29:33;;;;;;;7.83;2.10;;;19.20;99.90;;;19.74;100.00;97859.69;4969069;28;20461;-83
2023/07/16 01:32:08;;;;;;;12.33;2.13;;;19.10;99.90;;;19.75;100.00;97861.28;4961807;28;20557;-83
2023/07/16 01:34:39;;;;;;;8.83;1.83;;;19.10;99.90;;;19.71;100.00;97865.50;4962380;28;20476;-84
2023/07/16 01:37:10;;;;;;;2.30;1.60;;;19.10;99.90;;;19.71;100.00;97874.25;4958817;28;20473;-83
2023/07/16 01:39:40;;;;;;;5.60;2.13;;;19.10;99.90;;;19.66;100.00;97868.06;4959072;28;20472;-83
2023/07/16 01:42:09;;;;;;;4.90;2.07;;;19.10;99.90;;;19.63;100.00;97868.56;4958168;28;20465;-83
2023/07/16 01:44:40;;;;;;;6.03;2.30;;;19.10;99.90;;;19.61;100.00;97866.16;4962823;28;20503;-83
2023/07/16 01:47:13;;;;;;;16.77;1.97;;;19.00;99.90;;;19.65;100.00;97861.16;4958352;28;20449;-83
2023/07/16 01:49:43;;;;;;;4.17;1.73;;;19.00;99.90;;;19.51;100.00;97864.19;4960999;28;20471;-83
2023/07/16 01:52:13;;;;;;;9.60;2.03;;;19.00;99.90;;;19.46;100.00;97866.81;4959093;28;20507;-83
2023/07/16 01:54:44;;;;;;;4.87;1.83;;;19.00;99.90;;;19.47;100.00;97871.03;4958828;28;21042;-83
2023/07/16 01:57:15;;;;;;;2.80;1.90;;;18.90;99.90;;;19.48;100.00;97872.66;4956795;28;21065;-83
2023/07/16 01:59:46;;;;;;;7.23;2.20;;;18.90;99.90;;;19.37;100.00;97878.84;4963924;28;20473;-83
2023/07/16 02:02:16;;;;;;;6.23;1.80;;;18.90;99.90;;;19.44;100.00;97882.16;4961601;28;20474;-83
2023/07/16 02:04:46;;;;;;;13.83;2.00;;;18.70;99.90;;;19.43;100.00;97880.56;4955009;28;20461;-83
2023/07/16 02:07:16;;;;;;;7.90;3.20;;;18.80;99.90;;;19.34;100.00;97876.69;4958168;28;21030;-83
2023/07/16 02:09:47;;;;;;;3.40;1.90;;;18.80;99.90;;;19.31;100.00;97879.03;4957814;28;20473;-84
2023/07/16 02:12:16;;;;;;;8.47;2.10;;;18.80;99.90;;;19.26;100.00;97882.47;4960720;28;20932;-83
2023/07/16 02:14:49;;;;;;;7.87;1.70;;;18.80;99.90;;;19.24;100.00;97891.69;4959482;28;20553;-83
2023/07/16 02:17:20;;;;;;;7.17;1.83;;;18.70;99.90;;;19.20;100.00;97888.72;4960129;28;20475;-82
2023/07/16 02:19:50;;;;;;;8.57;2.47;;;18.70;99.90;;;19.03;100.00;97890.63;4959387;28;25890;-83
2023/07/16 02:22:21;;;;;;;10.10;2.53;;;18.70;99.90;;;19.02;100.00;97889.81;4956570;28;20472;-83
2023/07/16 02:24:51;;;;;;;5.40;2.03;;;18.60;99.90;;;19.07;100.00;97891.72;4956017;28;20469;-83
2023/07/16 02:27:21;;;;;;;4.43;1.90;;;18.50;99.90;;;19.15;100.00;97899.28;4959063;28;20470;-83
2023/07/16 02:29:53;;;;;;;4.20;1.90;;;18.50;99.90;;;19.14;100.00;97887.06;4957178;28;20462;-83
2023/07/16 02:32:23;;;;;;;6.83;1.90;;;18.50;99.90;;;19.08;100.00;97893.34;4955397;28;20542;-84
2023/07/16 02:34:53;;;;;;;12.10;2.43;;;18.50;99.90;;;19.04;100.00;97900.19;4960119;28;20471;-83
2023/07/16 02:37:23;;;;;;;5.37;2.20;;;18.50;99.90;;;19.05;100.00;97896.50;4959048;28;20468;-83
2023/07/16 02:39:53;;;;;;;6.27;1.90;;;18.50;99.90;;;18.97;100.00;97899.56;4956876;28;20495;-83
2023/07/16 02:42:23;;;;;;;8.30;2.00;;;18.50;99.90;;;18.88;100.00;97909.75;4954121;28;20482;-83
2023/07/16 02:44:54;;;;;;;7.67;2.50;;;18.50;99.90;;;18.91;100.00;97903.19;4957719;28;20473;-83
2023/07/16 02:47:23;;;;;;;5.00;1.80;;;18.40;99.90;;;18.90;100.00;97912.16;4955133;28;20465;-85
2023/07/16 02:49:53;;;;;;;5.20;1.93;;;18.40;99.90;;;18.89;100.00;97915.84;4960367;28;20574;-83
2023/07/16 02:52:23;;;;;;;13.23;2.10;;;18.30;99.90;;;18.86;100.00;97916.34;4959873;28;20503;-83
2023/07/16 02:54:53;;;;;;;9.87;2.10;;;18.40;99.90;;;18.73;100.00;97919.34;4962404;28;20968;-83
2023/07/16 02:57:24;;;;;;;2.60;1.63;;;18.40;99.90;;;18.75;100.00;97931.28;4955942;28;20473;-84
2023/07/16 02:59:54;;;;;;;8.30;1.80;;;18.30;99.90;;;18.71;100.00;97934.69;4960853;28;20468;-83
2023/07/16 03:02:25;;;;;;;3.73;1.70;;;18.20;99.90;;;18.71;100.00;97937.34;4960512;28;20473;-83
2023/07/16 03:04:56;;;;;;;7.30;1.60;;;18.20;99.90;;;18.70;100.00;97935.72;4957541;28;20460;-83
2023/07/16 03:07:27;;;;;;;9.23;2.00;;;18.20;99.90;;;18.76;100.00;97948.81;4956218;28;20892;-84
2023/07/16 03:09:58;;;;;;;4.00;1.80;;;18.20;99.90;;;18.75;100.00;97946.38;4959095;28;20968;-83
2023/07/16 03:12:28;;;;;;;4.17;1.97;;;18.20;99.90;;;18.79;100.00;97948.31;4959684;28;20477;-83
2023/07/16 03:14:59;;;;;;;6.60;1.80;;;18.10;99.90;;;18.78;100.00;97943.28;4961930;28;20469;-85
2023/07/16 03:17:30;;;;;;;7.37;2.27;;;18.10;99.90;;;18.71;100.00;97945.28;4959656;28;20468;-83
2023/07/16 03:20:00;;;;;;;3.30;2.10;;;18.10;99.90;;;18.67;100.00;97944.16;4958090;28;20534;-84
2023/07/16 03:22:30;;;;;;;5.57;1.97;;;18.10;99.90;;;18.67;100.00;97950.25;4961338;28;20468;-83
2023/07/16 03:25:02;;;;;;;2.20;1.67;;;18.00;99.90;;;18.60;100.00;97955.69;4963365;28;21274;-84
2023/07/16 03:27:32;;;;;;;9.10;1.80;;;18.10;99.90;;;18.66;100.00;97959.25;4962777;28;20464;-83
2023/07/16 03:30:06;;;;;;;8.37;2.10;;;18.00;99.90;;;18.64;100.00;97963.97;4965289;28;20499;-84
2023/07/16 03:32:36;;;;;;;4.20;1.77;;;18.00;99.90;;;18.62;100.00;97963.41;4964100;28;20557;-83
2023/07/16 03:35:21;;;;;;;5.93;2.03;;;17.90;99.90;;;18.67;100.00;97962.69;4963510;28;20464;-83
2023/07/16 03:37:53;;;;;;;6.97;2.40;;;17.90;99.90;;;18.57;100.00;97960.66;4964656;28;20465;-83
2023/07/16 03:40:27;;;;;;;2.70;1.60;;;17.90;99.90;;;18.54;100.00;97969.91;4962594;28;20475;-83
2023/07/16 03:42:58;;;;;;;6.63;2.10;;;17.90;99.90;;;18.53;100.00;97970.94;4963122;28;20468;-83
2023/07/16 03:45:31;;;;;;;5.27;2.03;;;17.90;99.90;;;18.45;100.00;97973.97;4960217;28;20496;-89
2023/07/16 03:48:01;;;;;;;4.83;1.93;;;17.80;99.90;;;18.44;100.00;97969.69;4963542;28;20469;-83
2023/07/16 03:50:31;;;;;;;5.00;1.87;;;17.80;99.90;;;18.43;100.00;97972.59;4962503;28;21021;-83
2023/07/16 03:53:03;;;;;;;9.57;1.87;;;17.80;99.90;;;18.41;100.00;97978.13;4964018;28;20572;-83
2023/07/16 03:55:32;;;;;;;11.67;2.43;;;17.80;99.90;;;18.40;100.00;97975.69;4963538;28;20500;-83
2023/07/16 03:58:02;;;;;;;5.63;1.90;;;17.70;99.90;;;18.33;100.00;97975.84;4969441;28;20551;-83
2023/07/16 04:00:33;;;;;;;7.27;1.70;;;17.70;99.90;;;18.41;100.00;97983.41;4963715;28;20508;-83
2023/07/16 04:03:03;;;;;;;7.77;2.10;;;17.70;99.90;;;18.39;100.00;97988.16;4962676;28;20868;-83
2023/07/16 04:05:33;;;;;;;8.27;2.60;;;17.70;99.90;;;18.33;100.00;97989.09;4961941;28;20548;-83
2023/07/16 04:08:03;;;;;;;5.77;2.13;;;17.60;99.90;;;18.31;100.00;97988.53;4963311;28;20465;-91
2023/07/16 04:10:33;;;;;;;16.43;5.73;;;17.70;99.90;;;18.29;100.00;97990.59;4961431;28;20461;-82
2023/07/16 04:13:05;;;;;;;7.73;2.30;;;17.60;99.90;;;18.32;100.00;97995.44;4964064;28;20469;-82
2023/07/16 04:15:36;;;;;;;4.20;2.20;;;17.60;99.90;;;18.31;100.00;97996.47;4961247;28;20514;-83
2023/07/16 04:18:05;;;;;;;10.93;2.27;;;17.50;99.90;;;18.24;100.00;97993.16;4956894;28;20492;-83
2023/07/16 04:20:34;;;;;;;5.77;1.97;;;17.60;99.90;;;18.24;100.00;97993.16;4964255;28;20472;-82
2023/07/16 04:23:04;;;;;;;4.97;2.07;;;17.50;99.90;;;18.24;100.00;97992.38;4961934;28;20461;-84
2023/07/16 04:25:35;;;;;;;6.47;2.20;;;17.50;99.90;;;18.20;100.00;97996.53;4963601;28;20473;-81
2023/07/16 04:28:05;;;;;;;9.00;3.03;;;17.50;99.90;;;18.15;100.00;97999.91;4962465;28;20467;-83
2023/07/16 04:30:37;;;;;;;8.40;2.33;;;17.50;99.90;;;18.09;100.00;98000.81;4961586;28;20486;-82
2023/07/16 04:33:08;;;;;;;9.63;2.17;;;17.50;99.90;;;18.09;100.00;97992.88;4964100;28;20456;-82
2023/07/16 04:35:38;;;;;;;5.07;2.20;;;17.50;99.90;;;18.06;100.00;97999.47;4959320;28;20458;-82
2023/07/16 04:38:08;;;;;;;12.17;2.77;;;17.50;99.90;;;18.07;100.00;97994.97;4965396;28;21281;-82
2023/07/16 04:40:39;;;;;;;11.00;2.20;;;17.50;99.90;;;18.06;100.00;97993.34;4961577;28;20464;-82
2023/07/16 04:43:10;;;;;;;9.57;2.00;;;17.50;99.90;;;18.06;100.00;98002.09;4964272;28;20557;-82
2023/07/16 04:45:41;;;;;;;9.20;2.53;;;17.50;99.90;;;18.05;100.00;98005.78;4960553;28;20509;-83
2023/07/16 04:48:11;;;;;;;9.60;3.37;;;17.50;99.90;;;17.98;100.00;98004.31;4959897;28;20453;-82
2023/07/16 04:50:40;;;;;;;75.57;47.00;;;17.50;99.90;;;18.01;100.00;98009.16;4961175;28;20473;-91
2023/07/16 04:53:10;;;;;;;15.80;5.63;;;17.40;99.90;;;18.05;100.00;98011.06;4959728;28;20461;-83
2023/07/16 04:55:41;;;;;;;8.27;2.90;;;17.40;99.90;;;18.01;100.00;98017.09;4957412;28;20476;-84
2023/07/16 04:58:12;;;;;;;7.17;3.03;;;17.50;99.90;;;17.97;100.00;98014.09;4956368;28;20464;-83
2023/07/16 05:00:44;;;;;;;4.70;2.07;;;17.50;99.90;;;18.00;100.00;98018.13;4958843;28;20469;-84
2023/07/16 05:03:15;;;;;;;4.37;2.10;;;17.40;99.90;;;18.00;100.00;98018.13;4958534;28;20465;-83
2023/07/16 05:05:45;;;;;;;6.13;2.53;;;17.40;99.90;;;18.05;100.00;98031.44;4956757;28;20473;-83
2023/07/16 05:08:14;;;;;;;12.57;2.50;;;17.40;99.90;;;18.09;100.00;98024.63;4956036;28;21011;-82
2023/07/16 05:10:45;;;;;;;7.17;2.70;;;17.40;99.90;;;18.09;100.00;98032.59;4958642;28;20470;-84
2023/07/16 05:13:16;;;;;;;6.53;1.97;;;17.40;99.90;;;18.11;100.00;98038.47;4959094;28;20469;-83
2023/07/16 05:15:48;;;;;;;6.27;2.37;;;17.40;99.90;;;18.13;100.00;98039.00;4959698;28;20583;-82
2023/07/16 05:18:19;;;;;;;7.07;2.47;;;17.50;99.90;;;18.08;100.00;98046.88;4959191;28;20465;-83
2023/07/16 05:20:49;;;;;;;7.30;2.33;;;17.50;99.90;;;18.15;100.00;98041.44;4959169;28;20461;-84
2023/07/16 05:23:19;;;;;;;13.57;2.80;;;17.50;99.90;;;18.18;100.00;98055.00;4959666;28;20471;-83
2023/07/16 05:25:52;;;;;;;4.67;2.50;;;17.50;99.90;;;18.21;100.00;98046.59;4957073;28;20482;-83
2023/07/16 05:28:23;;;;;;;6.13;2.30;;;17.50;99.90;;;18.24;100.00;98056.72;4957488;28;20550;-83
2023/07/16 05:31:01;;;;;;;10.83;2.67;;;17.60;99.90;;;18.24;100.00;98050.59;4957418;28;20481;-83
2023/07/16 05:33:31;;;;;;;6.60;3.13;;;17.60;99.90;;;18.20;100.00;98060.88;4961678;28;20881;-83
2023/07/16 05:36:03;;;;;;;6.63;2.77;;;17.70;99.90;;;18.19;100.00;98059.25;4956199;28;20469;-83
2023/07/16 05:38:33;;;;;;;4.93;2.40;;;17.60;99.90;;;18.17;100.00;98049.94;4957523;28;20560;-83
2023/07/16 05:41:04;;;;;;;4.87;2.43;;;17.70;99.90;;;18.18;100.00;98062.94;4958299;28;20473;-83
2023/07/16 05:43:35;;;;;;;6.77;2.10;;;17.70;99.90;;;18.16;100.00;98072.94;4954181;28;21027;-83
2023/07/16 05:46:07;;;;;;;5.43;2.13;;;17.60;99.90;;;18.11;100.00;98064.94;4961243;28;20469;-83
2023/07/16 05:48:37;;;;;;;8.63;2.40;;;17.60;99.90;;;18.14;100.00;98066.28;4959433;28;20468;-83
2023/07/16 05:51:07;;;;;;;6.83;2.90;;;17.60;99.90;;;18.15;100.00;98078.50;4956162;28;20492;-83
2023/07/16 05:53:37;;;;;;;9.07;2.43;;;17.60;99.90;;;18.22;100.00;98081.81;4956869;28;20530;-83
2023/07/16 05:56:07;;;;;;;13.90;2.93;;;17.70;99.90;;;18.17;100.00;98081.69;4957071;28;20606;-85
2023/07/16 05:58:37;;;;;;;7.93;2.80;;;17.70;99.90;;;18.06;100.00;98088.63;4960403;28;20463;-91
2023/07/16 06:01:10;;;;;;;8.80;4.07;;;17.70;99.90;;;18.03;100.00;98083.81;4957033;28;20558;-84
2023/07/16 06:03:40;;;;;;;15.87;2.90;;;17.70;99.90;;;18.10;100.00;98087.13;4957204;28;20481;-83
2023/07/16 06:06:10;;;;;;;12.13;2.87;;;17.60;99.90;;;18.16;100.00;98086.19;4957484;28;20476;-83
2023/07/16 06:08:44;;;;;;;8.60;2.90;;;17.60;99.90;;;18.25;100.00;98090.09;4959837;28;20465;-83
2023/07/16 06:11:14;;;;;;;6.47;2.47;;;17.60;99.90;;;18.24;100.00;98087.66;4958192;28;20464;-83
2023/07/16 06:13:45;;;;;;;12.27;3.00;;;17.60;99.90;;;18.26;100.00;98093.53;4960233;28;20484;-90
2023/07/16 06:16:16;;;;;;;4.70;2.17;;;17.70;99.90;;;18.27;100.00;98098.59;4955636;28;22015;-83
2023/07/16 06:18:48;;;;;;;6.00;2.43;;;17.70;99.90;;;18.27;100.00;98097.78;4959073;28;20929;-83
2023/07/16 06:21:16;;;;;;;5.20;2.60;;;17.80;99.90;;;18.29;100.00;98099.16;4956103;28;20469;-83
2023/07/16 06:23:47;;;;;;;14.93;2.83;;;17.80;99.90;;;18.34;100.00;98104.56;4955167;28;20557;-83
2023/07/16 06:26:19;;;;;;;9.67;2.27;;;17.70;99.90;;;18.39;100.00;98090.63;4957854;28;20614;-83
2023/07/16 06:28:51;;;;;;;5.20;2.87;;;17.70;99.90;;;18.44;100.00;98094.16;4959605;28;21046;-83
2023/07/16 06:31:23;;;;;;;11.67;2.63;;;17.80;99.90;;;18.50;100.00;98092.44;4954722;28;20480;-82
2023/07/16 06:33:55;;;;;;;6.57;2.70;;;17.80;99.90;;;18.55;100.00;98096.00;4960083;28;20468;-83
2023/07/16 06:36:30;;;;;;;5.57;2.60;;;17.90;99.90;;;18.49;100.00;98091.63;4955478;28;20492;-83
2023/07/16 06:39:00;;;;;;;10.33;2.90;;;17.90;99.90;;;18.52;100.00;98104.44;4958605;28;20476;-83
2023/07/16 06:41:32;;;;;;;5.13;2.60;;;17.90;99.90;;;18.56;100.00;98102.91;4954495;28;20563;-83
2023/07/16 06:44:01;;;;;;;10.77;3.20;;;17.90;99.90;;;18.52;100.00;98101.78;4961954;28;21187;-83
2023/07/16 06:46:34;;;;;;;11.43;2.70;;;17.90;99.90;;;18.52;100.00;98112.38;4957048;28;20466;-83
2023/07/16 06:49:03;;;;;;;9.37;3.07;;;18.00;99.90;;;18.56;100.00;98108.22;4957403;28;20483;-83
2023/07/16 06:51:34;;;;;;;11.20;6.20;;;18.00;99.90;;;18.53;100.00;98098.06;4961476;28;20523;-86
2023/07/16 06:54:04;;;;;;;8.30;2.47;;;18.00;99.90;;;18.48;100.00;98116.50;4961596;28;20920;-84
2023/07/16 06:56:35;;;;;;;12.67;2.90;;;17.90;99.90;;;18.45;100.00;98116.97;4957612;28;20509;-84
2023/07/16 06:59:06;;;;;;;7.70;2.90;;;17.90;99.90;;;18.39;100.00;98104.69;4966972;28;20461;-84
2023/07/16 07:01:38;;;;;;;7.77;2.43;;;18.00;99.90;;;18.45;100.00;98110.88;4961536;28;20468;-83
2023/07/16 07:04:09;;;;;;;12.03;3.20;;;18.00;99.90;;;18.46;100.00;98108.00;4960296;28;20473;-84
2023/07/16 07:06:40;;;;;;;7.03;2.80;;;18.00;99.90;;;18.46;100.00;98100.06;4961140;28;20474;-91
2023/07/16 07:09:11;;;;;;;20.47;9.80;;;18.00;99.90;;;18.54;100.00;98102.34;4959593;28;20470;-83
2023/07/16 07:11:40;;;;;;;10.30;2.50;;;18.00;99.90;;;18.50;100.00;98113.63;4959210;28;20874;-83
2023/07/16 07:14:10;;;;;;;5.97;2.60;;;17.90;99.90;;;18.51;100.00;98118.69;4961081;28;20485;-83
2023/07/16 07:16:42;;;;;;;9.63;3.00;;;18.00;99.90;;;18.49;100.00;98112.81;4960032;28;20565;-83
2023/07/16 07:19:12;;;;;;;7.40;2.83;;;17.90;99.90;;;18.49;100.00;98112.81;4961268;28;21349;-83
2023/07/16 07:21:43;;;;;;;4.67;2.90;;;17.90;99.90;;;18.50;100.00;98122.38;4956890;28;20479;-83
2023/07/16 07:24:12;;;;;;;7.60;3.40;;;18.00;99.90;;;18.49;100.00;98127.91;4960858;28;20565;-83
2023/07/16 07:26:42;;;;;;;6.97;3.00;;;18.00;99.90;;;18.53;100.00;98118.47;4955610;28;21526;-81
2023/07/16 07:29:11;;;;;;;10.60;2.97;;;18.00;99.90;;;18.56;100.00;98110.88;4955899;28;20865;-82
2023/07/16 07:31:43;;;;;;;7.30;3.00;;;18.00;99.90;;;18.54;100.00;98110.28;4958433;28;21165;-81
2023/07/16 07:34:12;;;;;;;8.30;2.80;;;18.00;99.90;;;18.53;100.00;98113.19;4956557;28;20469;-81
2023/07/16 07:36:42;;;;;;;4.90;2.57;;;18.00;99.90;;;18.53;100.00;98108.66;4961634;28;21121;-90
2023/07/16 07:39:13;;;;;;;7.17;2.60;;;18.10;99.90;;;18.59;100.00;98114.88;4962513;28;20457;-82
2023/07/16 07:41:43;;;;;;;9.40;3.30;;;18.00;99.90;;;18.62;100.00;98116.25;4960282;28;20480;-81
2023/07/16 07:44:12;;;;;;;6.00;2.70;;;18.10;99.90;;;18.66;100.00;98112.88;4958627;28;20514;-81
2023/07/16 07:46:43;;;;;;;35.13;17.83;;;18.20;99.90;;;18.75;100.00;98118.59;4960848;28;20482;-83
2023/07/16 07:49:13;;;;;;;6.10;2.80;;;18.20;99.90;;;18.76;100.00;98117.56;4958318;28;20493;-81
2023/07/16 07:51:43;;;;;;;8.73;3.03;;;18.10;99.90;;;18.76;100.00;98106.97;4957587;28;20470;-81
2023/07/16 07:54:12;;;;;;;6.20;2.87;;;18.20;99.90;;;18.77;100.00;98113.88;4959193;28;20541;-81
2023/07/16 07:56:43;;;;;;;13.37;3.20;;;18.30;99.90;;;18.74;100.00;98119.66;4960860;28;20497;-81
2023/07/16 07:59:13;;;;;;;11.87;3.47;;;18.40;99.90;;;18.80;100.00;98113.41;4960569;28;20960;-81
2023/07/16 08:01:43;;;;;;;26.40;13.50;;;18.30;99.90;;;18.86;100.00;98126.50;4961762;28;20530;-86
2023/07/16 08:04:13;;;;;;;14.03;3.40;;;18.30;99.90;;;18.93;100.00;98123.69;4964026;28;20811;-81
2023/07/16 08:06:44;;;;;;;9.60;3.20;;;18.40;99.90;;;19.01;100.00;98120.69;4961249;28;20546;-81
2023/07/16 08:09:14;;;;;;;8.03;2.53;;;18.50;99.90;;;19.06;100.00;98120.75;4957621;28;20581;-81
2023/07/16 08:11:44;;;;;;;3.90;1.97;;;18.50;99.90;;;19.08;100.00;98122.13;4962590;28;20470;-81
2023/07/16 08:14:14;;;;;;;6.70;3.30;;;18.40;99.90;;;19.16;100.00;98130.75;4963152;28;20839;-81
2023/07/16 08:16:44;;;;;;;19.00;4.80;;;18.60;99.90;;;19.20;100.00;98130.00;4964329;28;20509;-81
2023/07/16 08:19:14;;;;;;;4.63;2.60;;;18.60;99.90;;;19.22;100.00;98127.94;4963043;28;20484;-82
2023/07/16 08:21:44;;;;;;;10.57;3.20;;;18.70;99.70;;;19.29;99.86;98133.88;4961430;28;20487;-81
2023/07/16 08:24:13;;;;;;;7.30;2.80;;;18.70;99.60;;;19.38;99.60;98137.75;4964298;28;20472;-81
2023/07/16 08:26:43;;;;;;;15.07;3.83;;;18.80;99.50;;;19.40;98.29;98130.31;4962102;28;20500;-80
2023/07/16 08:29:13;;;;;;;9.40;3.00;;;18.90;99.20;;;19.43;97.14;98134.41;4961340;28;20914;-81
2023/07/16 08:31:44;;;;;;;9.93;2.93;;;18.90;99.00;;;19.44;96.47;98141.28;4962509;28;20496;-81
2023/07/16 08:34:13;;;;;;;8.50;2.80;;;19.00;98.80;;;19.51;96.19;98140.09;4961840;28;20463;-80
2023/07/16 08:36:44;;;;;;;10.07;2.83;;;18.90;98.30;;;19.58;94.18;98148.69;4961296;28;20561;-81
2023/07/16 08:39:13;;;;;;;9.33;2.70;;;19.00;98.60;;;19.66;94.82;98152.00;4962893;28;21017;-81
2023/07/16 08:41:43;;;;;;;7.60;2.90;;;19.20;99.00;;;19.65;92.92;98142.41;4964290;28;20472;-81
2023/07/16 08:44:13;;;;;;;6.20;3.03;;;19.10;98.10;;;19.64;93.02;98146.13;4960317;28;20496;-80
2023/07/16 08:46:45;;;;;;;8.80;2.87;;;19.00;98.10;;;19.62;93.21;98143.72;4960881;28;20478;-81
2023/07/16 08:49:19;;;;;;;7.30;3.57;;;19.10;98.20;;;19.61;91.72;98141.31;4960742;28;20469;-81
2023/07/16 08:51:49;;;;;;;14.60;3.23;;;19.20;97.80;;;19.54;90.98;98144.91;4961711;28;20545;-81
2023/07/16 08:54:20;;;;;;;6.00;2.80;;;19.10;97.50;;;19.60;91.47;98145.81;4958388;28;21743;-81
2023/07/16 08:56:50;;;;;;;8.57;3.50;;;19.10;97.60;;;19.59;90.99;98145.00;4959147;28;20551;-81
2023/07/16 08:59:19;;;;;;;9.50;3.47;;;19.10;97.70;;;19.59;89.87;98142.34;4962245;28;21044;-80
2023/07/16 09:01:50;;;;;;;11.50;2.90;;;19.10;97.50;;;19.58;88.92;98138.09;4961090;28;20474;-81
2023/07/16 09:04:19;;;;;;;7.00;3.20;;;19.20;97.10;;;19.63;88.83;98141.88;4962240;28;20543;-80
2023/07/16 09:06:49;;;;;;;13.90;3.50;;;19.30;97.10;;;19.71;89.59;98138.81;4960621;28;20462;-81
2023/07/16 09:09:23;;;;;;;8.60;3.50;;;19.20;97.40;;;19.80;90.17;98146.13;4957475;28;20469;-80
2023/07/16 09:11:53;;;;;;;12.23;3.60;;;19.20;97.70;;;19.87;90.86;98144.09;4958692;28;20465;-80
2023/07/16 09:14:22;;;;;;;4.73;2.90;;;19.30;97.70;;;19.97;87.86;98152.19;4960168;28;21060;-80
2023/07/16 09:16:54;;;;;;;5.67;3.00;;;19.30;96.90;;;20.03;85.99;98142.44;4959064;28;20518;-81
2023/07/16 09:19:23;;;;;;;17.53;2.80;;;19.50;96.80;;;20.09;84.97;98133.50;4960303;28;20473;-80
2023/07/16 09:21:53;;;;;;;9.03;3.20;;;19.50;96.20;;;20.14;86.15;98141.53;4962522;28;20465;-80
2023/07/16 09:24:23;;;;;;;10.70;3.23;;;19.50;96.10;;;20.21;83.96;98152.78;4960901;28;20841;-81
2023/07/16 09:26:53;;;;;;;9.17;3.20;;;19.60;96.10;;;20.27;82.38;98145.69;4966162;28;20548;-81
2023/07/16 09:29:27;;;;;;;12.83;3.00;;;19.70;95.90;;;20.33;82.65;98160.69;4962534;28;20520;-81
2023/07/16 09:32:03;;;;;;;6.07;3.27;;;19.60;96.00;;;20.33;81.80;98160.69;4964969;28;20506;-80
2023/07/16 09:34:33;;;;;;;7.47;3.13;;;19.80;95.80;;;20.33;80.58;98158.81;4960951;28;20514;-83
2023/07/16 09:37:03;;;;;;;9.47;3.50;;;19.90;95.30;;;20.38;81.96;98166.03;4960935;28;20492;-81
2023/07/16 09:39:35;;;;;;;12.10;3.00;;;19.90;95.90;;;20.41;81.07;98158.38;4965098;28;21307;-81
2023/07/16 09:42:07;;;;;;;9.50;3.30;;;19.80;95.30;;;20.47;81.46;98160.06;4960452;28;20465;-81
2023/07/16 09:44:38;;;;;;;10.47;3.20;;;19.80;95.80;;;20.48;80.78;98153.69;4963444;28;20472;-80
2023/07/16 09:47:10;;;;;;;15.50;3.00;;;19.90;95.60;;;20.56;82.29;98171.84;4964148;28;20464;-81
2023/07/16 09:49:41;;;;;;;8.03;3.43;;;19.90;95.70;;;20.53;79.95;98159.06;4963922;28;20468;-81
2023/07/16 09:52:10;;;;;;;19.73;3.87;;;19.90;95.40;;;20.62;81.61;98170.03;4958617;28;21043;-81
2023/07/16 09:54:41;;;;;;;8.80;3.50;;;20.00;95.80;;;20.56;80.54;98169.19;4960078;28;20467;-81
2023/07/16 09:57:12;;;;;;;7.27;3.40;;;20.00;95.40;;;20.56;81.50;98161.22;4962067;28;20845;-80
2023/07/16 09:59:42;;;;;;;6.00;3.57;;;20.00;95.60;;;20.59;79.59;98165.22;4962704;28;20461;-81
2023/07/16 10:02:13;;;;;;;8.27;3.30;;;20.00;95.00;;;20.61;77.29;98170.31;4961417;28;20524;-81
2023/07/16 10:04:43;;;;;;;11.57;3.70;;;20.10;94.60;;;20.58;76.75;98175.06;4959354;28;20460;-81
2023/07/16 10:07:22;;;;;;;8.53;4.10;;;20.10;94.20;;;20.59;76.69;98160.72;4957755;28;20472;-81
2023/07/16 10:09:57;;;;;;;9.50;3.10;;;20.10;94.30;;;20.58;75.03;98161.75;4960874;28;20465;-81
2023/07/16 10:12:28;;;;;;;8.13;3.37;;;20.20;94.00;;;20.57;75.48;98154.06;4964941;28;21007;-81
2023/07/16 10:14:59;;;;;;;8.17;3.70;;;20.10;94.00;;;20.57;76.60;98167.34;4960814;28;20484;-81
2023/07/16 10:17:33;;;;;;;5.43;3.40;;;20.20;94.30;;;20.55;76.01;98170.25;4961391;28;20883;-81
2023/07/16 10:20:10;;;;;;;7.63;3.90;;;20.10;94.10;;;20.47;73.83;98168.03;4960415;28;20464;-81
2023/07/16 10:22:42;;;;;;;13.70;3.83;;;19.90;93.40;;;20.53;74.22;98169.69;4958787;28;20968;-80
2023/07/16 10:25:23;;;;;;;10.80;3.57;;;19.90;93.80;;;20.62;74.52;98167.38;4961285;28;20468;-81
2023/07/16 10:27:55;;;;;;;8.17;3.43;;;20.00;94.00;;;20.69;74.13;98167.22;4963771;28;20476;-80
2023/07/16 10:30:24;;;;;;;6.83;3.70;;;20.10;93.80;;;20.69;73.11;98151.28;4961530;28;20851;-81